Home   Weather   France   Lens   Past weeks
Flag for France

Past Weather in Lens, Pas-de-Calais, France — Yesterday and Last 2 Weeks

Currently: 64 °F. Partly sunny. (Weather station: Lille Airport, France). See more current weather

Past Weather in Lens — Graph

°F

Lens Temperature Yesterday

Maximum temperature yesterday: 66 °F (at 4:30 pm)
Minimum temperature yesterday: 48 °F (at 5:30 am)
Average temperature yesterday: 58 °F

High & Low Weather Summary for the Past Weeks

 TemperatureHumidityPressure
High72 °F (Jun 4, 5:00 pm)100% (May 31, 7:30 am)30.27 "Hg (May 31, 7:30 am)
Low43 °F (Jun 11, 5:30 am)35% (Jun 9, 3:30 pm)29.65 "Hg (Jun 14, 5:00 pm)
Average57 °F76%30.00 "Hg
* Reported May 30 5:00 pm — Jun 14 5:30 pm, Lens. Weather by CustomWeather, © 2024

Note: Actual official high and low records may vary slightly from our data, if they occured in-between our weather recording intervals... More about our weather records

Lens Weather History for the Previous 24 Hours

Scroll right to see more
 ConditionsComfort  
Time TempWeatherWind HumidityBarometerVisibility
5:30 pm
Fri, Jun 14
64 °FPassing clouds.10 mph78%29.65 "HgN/A
5:00 pm63 °FBroken clouds.8 mph88%29.65 "HgN/A
3:30 pm63 °FMostly cloudy.7 mph77%29.68 "HgN/A
2:30 pm63 °FMostly cloudy.10 mph73%29.71 "HgN/A
2:00 pm64 °FMostly cloudy.13 mph68%29.71 "HgN/A
1:00 pm63 °FMore clouds than sun.10 mph73%29.71 "HgN/A
12:30 pm61 °FMostly cloudy.12 mph77%29.71 "HgN/A
11:30 am59 °FOvercast.12 mph82%29.71 "HgN/A
11:00 am57 °FOvercast.13 mph88%29.71 "HgN/A
10:30 am57 °FOvercast.13 mph88%29.71 "HgN/A
10:00 am55 °FLow clouds.12 mph94%29.71 "HgN/A
9:30 am55 °FLow clouds.14 mph94%29.71 "HgN/A
9:00 am54 °FLow clouds.13 mph100%29.71 "Hg4 mi
8:30 am54 °FMostly cloudy.12 mph100%29.71 "HgN/A
8:00 am54 °FDrizzle. Fog.12 mph100%29.71 "Hg3 mi
7:30 am54 °FDrizzle. Fog.12 mph94%29.71 "Hg3 mi
7:00 am54 °FMore clouds than sun.15 mph88%29.71 "HgN/A
6:30 am54 °FOvercast.13 mph88%29.71 "HgN/A
6:00 am54 °FMostly cloudy.12 mph88%29.74 "HgN/A
5:30 am54 °FLight rain. Mostly cloudy.12 mph88%29.74 "Hg5 mi
4:30 am55 °FOvercast.12 mph82%29.74 "HgN/A
4:00 am55 °FOvercast.10 mph88%29.74 "HgN/A
3:00 am55 °FClear.8 mph88%29.77 "HgN/A
2:30 am55 °FLight rain. Clear.6 mph88%29.80 "HgN/A
2:00 am55 °FClear.5 mph88%29.80 "HgN/A
1:00 am57 °FLight rain. Clear.7 mph82%29.83 "HgN/A
12:30 am57 °FLight rain. Clear.7 mph77%29.83 "HgN/A
12:00 am59 °FLight rain. Clear.8 mph72%29.86 "HgN/A
11:30 pm
Thu, Jun 13
61 °FClear.13 mph63%29.86 "Hg10 mi
11:00 pm61 °FPassing clouds.5 mph59%29.83 "HgN/A
10:30 pm59 °FClear.6 mph68%29.86 "Hg10 mi
10:00 pm61 °FClear.5 mph59%29.86 "Hg10 mi
9:30 pm63 °FSunny.5 mph56%29.86 "Hg10 mi
9:00 pm63 °FSunny.5 mph56%29.86 "Hg10 mi
8:30 pm63 °FSunny.6 mph52%29.89 "Hg10 mi
8:00 pm64 °FSunny.10 mph49%29.89 "Hg10 mi
7:30 pm64 °FSunny.12 mph49%29.89 "Hg10 mi
7:00 pm66 °FSunny.10 mph46%29.89 "Hg10 mi
6:30 pm64 °FPassing clouds.12 mph49%29.92 "HgN/A
6:00 pm64 °FPassing clouds.13 mph49%29.92 "HgN/A
Weather by CustomWeather, © 2024

See weather overview